sensor_id;sensor_type;location;lat;lon;timestamp;temperature;humidity
1103;DHT22;538;42.654;23.376;2023-05-09T00:02:03;14.80;49.40
1103;DHT22;538;42.654;23.376;2023-05-09T00:04:30;14.60;48.90
1103;DHT22;538;42.654;23.376;2023-05-09T00:06:58;14.60;49.20
1103;DHT22;538;42.654;23.376;2023-05-09T00:11:53;14.40;49.80
1103;DHT22;538;42.654;23.376;2023-05-09T00:14:21;14.40;49.30
1103;DHT22;538;42.654;23.376;2023-05-09T00:16:49;14.50;49.20
1103;DHT22;538;42.654;23.376;2023-05-09T00:21:43;14.50;49.60
1103;DHT22;538;42.654;23.376;2023-05-09T00:24:10;14.40;49.20
1103;DHT22;538;42.654;23.376;2023-05-09T00:26:37;14.60;50.10
1103;DHT22;538;42.654;23.376;2023-05-09T00:29:04;14.60;50.40
1103;DHT22;538;42.654;23.376;2023-05-09T00:31:32;14.60;51.10
1103;DHT22;538;42.654;23.376;2023-05-09T00:33:59;14.50;51.40
1103;DHT22;538;42.654;23.376;2023-05-09T00:36:26;14.50;50.80
1103;DHT22;538;42.654;23.376;2023-05-09T00:46:15;14.70;51.90
1103;DHT22;538;42.654;23.376;2023-05-09T00:48:44;14.70;51.70
1103;DHT22;538;42.654;23.376;2023-05-09T00:51:11;14.70;51.00
1103;DHT22;538;42.654;23.376;2023-05-09T00:53:38;14.70;50.90
1103;DHT22;538;42.654;23.376;2023-05-09T00:56:06;14.80;50.30
1103;DHT22;538;42.654;23.376;2023-05-09T00:58:33;14.80;50.30
1103;DHT22;538;42.654;23.376;2023-05-09T01:01:00;14.80;50.10
1103;DHT22;538;42.654;23.376;2023-05-09T01:03:28;14.80;49.40
1103;DHT22;538;42.654;23.376;2023-05-09T01:06:04;14.90;49.20
1103;DHT22;538;42.654;23.376;2023-05-09T01:08:43;14.90;49.90
1103;DHT22;538;42.654;23.376;2023-05-09T01:11:19;14.80;49.70
1103;DHT22;538;42.654;23.376;2023-05-09T01:13:55;14.90;49.50
1103;DHT22;538;42.654;23.376;2023-05-09T01:16:31;14.80;49.20
1103;DHT22;538;42.654;23.376;2023-05-09T01:19:04;15.00;48.70
1103;DHT22;538;42.654;23.376;2023-05-09T01:21:37;14.90;48.60
1103;DHT22;538;42.654;23.376;2023-05-09T01:27:22;14.90;49.00
1103;DHT22;538;42.654;23.376;2023-05-09T01:30:11;14.90;48.90
1103;DHT22;538;42.654;23.376;2023-05-09T01:32:39;14.80;47.90
1103;DHT22;538;42.654;23.376;2023-05-09T01:35:12;14.90;47.80
1103;DHT22;538;42.654;23.376;2023-05-09T01:37:42;15.00;47.70
1103;DHT22;538;42.654;23.376;2023-05-09T01:40:13;14.90;47.80
1103;DHT22;538;42.654;23.376;2023-05-09T01:42:43;15.00;48.50
1103;DHT22;538;42.654;23.376;2023-05-09T01:45:13;14.80;48.50
1103;DHT22;538;42.654;23.376;2023-05-09T01:47:42;14.90;48.60
1103;DHT22;538;42.654;23.376;2023-05-09T01:50:11;14.90;48.30
1103;DHT22;538;42.654;23.376;2023-05-09T01:52:39;14.90;47.70
1103;DHT22;538;42.654;23.376;2023-05-09T01:55:08;14.80;47.40
1103;DHT22;538;42.654;23.376;2023-05-09T01:57:36;14.90;47.20
1103;DHT22;538;42.654;23.376;2023-05-09T02:00:06;14.90;47.20
1103;DHT22;538;42.654;23.376;2023-05-09T02:02:37;14.80;47.80
1103;DHT22;538;42.654;23.376;2023-05-09T02:05:05;14.90;47.90
1103;DHT22;538;42.654;23.376;2023-05-09T02:07:34;14.80;46.60
1103;DHT22;538;42.654;23.376;2023-05-09T02:10:02;14.90;45.90
1103;DHT22;538;42.654;23.376;2023-05-09T02:12:33;14.80;46.10
1103;DHT22;538;42.654;23.376;2023-05-09T02:17:27;14.90;45.90
1103;DHT22;538;42.654;23.376;2023-05-09T02:19:56;14.90;46.70
1103;DHT22;538;42.654;23.376;2023-05-09T02:22:23;14.90;46.90
1103;DHT22;538;42.654;23.376;2023-05-09T02:24:50;14.80;47.50
1103;DHT22;538;42.654;23.376;2023-05-09T02:27:18;14.90;47.10
1103;DHT22;538;42.654;23.376;2023-05-09T02:29:48;14.90;46.70
1103;DHT22;538;42.654;23.376;2023-05-09T02:32:19;14.90;47.10
1103;DHT22;538;42.654;23.376;2023-05-09T02:34:48;15.00;45.90
1103;DHT22;538;42.654;23.376;2023-05-09T02:37:18;14.90;45.00
1103;DHT22;538;42.654;23.376;2023-05-09T02:42:21;14.90;43.40
1103;DHT22;538;42.654;23.376;2023-05-09T02:44:49;14.90;44.40
1103;DHT22;538;42.654;23.376;2023-05-09T02:47:16;14.80;45.30
1103;DHT22;538;42.654;23.376;2023-05-09T02:49:43;14.90;45.80
1103;DHT22;538;42.654;23.376;2023-05-09T02:52:10;14.90;46.10
1103;DHT22;538;42.654;23.376;2023-05-09T02:54:39;15.00;46.80
1103;DHT22;538;42.654;23.376;2023-05-09T02:57:06;14.90;47.10
1103;DHT22;538;42.654;23.376;2023-05-09T03:02:01;14.80;47.10
1103;DHT22;538;42.654;23.376;2023-05-09T03:04:28;15.00;45.90
1103;DHT22;538;42.654;23.376;2023-05-09T03:11:51;14.90;48.80
1103;DHT22;538;42.654;23.376;2023-05-09T03:14:18;14.80;49.40
1103;DHT22;538;42.654;23.376;2023-05-09T03:16:45;15.00;49.90
1103;DHT22;538;42.654;23.376;2023-05-09T03:24:08;14.80;50.30
1103;DHT22;538;42.654;23.376;2023-05-09T03:26:36;14.80;51.10
1103;DHT22;538;42.654;23.376;2023-05-09T03:29:04;14.80;51.90
1103;DHT22;538;42.654;23.376;2023-05-09T03:31:31;14.70;52.80
1103;DHT22;538;42.654;23.376;2023-05-09T03:38:53;14.70;53.30
1103;DHT22;538;42.654;23.376;2023-05-09T03:41:20;14.80;53.20
1103;DHT22;538;42.654;23.376;2023-05-09T03:43:47;14.80;52.80
1103;DHT22;538;42.654;23.376;2023-05-09T03:46:15;14.80;52.50
1103;DHT22;538;42.654;23.376;2023-05-09T03:53:37;14.90;52.90
1103;DHT22;538;42.654;23.376;2023-05-09T03:56:07;14.90;52.70
1103;DHT22;538;42.654;23.376;2023-05-09T03:58:34;14.60;52.00
1103;DHT22;538;42.654;23.376;2023-05-09T04:01:01;14.70;51.60
1103;DHT22;538;42.654;23.376;2023-05-09T04:03:30;14.80;51.90
1103;DHT22;538;42.654;23.376;2023-05-09T04:08:25;14.70;51.90
1103;DHT22;538;42.654;23.376;2023-05-09T04:10:52;14.70;51.40
1103;DHT22;538;42.654;23.376;2023-05-09T04:13:19;14.60;52.00
1103;DHT22;538;42.654;23.376;2023-05-09T04:15:46;14.80;53.10
1103;DHT22;538;42.654;23.376;2023-05-09T04:18:13;14.80;52.90
1103;DHT22;538;42.654;23.376;2023-05-09T04:20:42;14.60;51.60
1103;DHT22;538;42.654;23.376;2023-05-09T04:23:09;14.60;52.30
1103;DHT22;538;42.654;23.376;2023-05-09T04:25:36;14.70;53.50
1103;DHT22;538;42.654;23.376;2023-05-09T04:33:00;15.10;54.20
1103;DHT22;538;42.654;23.376;2023-05-09T04:35:27;15.00;53.30
1103;DHT22;538;42.654;23.376;2023-05-09T04:37:55;14.90;52.60
1103;DHT22;538;42.654;23.376;2023-05-09T04:40:22;15.20;52.40
1103;DHT22;538;42.654;23.376;2023-05-09T04:42:50;15.10;51.80
1103;DHT22;538;42.654;23.376;2023-05-09T04:45:17;15.30;51.20
1103;DHT22;538;42.654;23.376;2023-05-09T04:47:44;15.40;50.80
1103;DHT22;538;42.654;23.376;2023-05-09T04:50:12;15.30;50.00
1103;DHT22;538;42.654;23.376;2023-05-09T04:52:39;15.40;49.40
1103;DHT22;538;42.654;23.376;2023-05-09T04:55:08;15.30;48.30
1103;DHT22;538;42.654;23.376;2023-05-09T04:57:35;15.40;47.60
1103;DHT22;538;42.654;23.376;2023-05-09T05:00:02;15.60;47.40
1103;DHT22;538;42.654;23.376;2023-05-09T05:02:31;15.50;46.40
1103;DHT22;538;42.654;23.376;2023-05-09T05:04:58;15.50;46.40
1103;DHT22;538;42.654;23.376;2023-05-09T05:07:25;15.50;46.40
1103;DHT22;538;42.654;23.376;2023-05-09T05:09:53;15.50;45.70
1103;DHT22;538;42.654;23.376;2023-05-09T05:12:21;15.70;44.90
1103;DHT22;538;42.654;23.376;2023-05-09T05:19:43;15.50;42.30
1103;DHT22;538;42.654;23.376;2023-05-09T05:22:10;15.60;42.80
1103;DHT22;538;42.654;23.376;2023-05-09T05:27:05;15.60;43.10
1103;DHT22;538;42.654;23.376;2023-05-09T05:29:33;15.70;43.00
1103;DHT22;538;42.654;23.376;2023-05-09T05:32:00;15.70;43.40
1103;DHT22;538;42.654;23.376;2023-05-09T05:34:27;15.70;44.30
1103;DHT22;538;42.654;23.376;2023-05-09T05:36:54;15.80;42.60
1103;DHT22;538;42.654;23.376;2023-05-09T05:39:21;15.90;40.60
1103;DHT22;538;42.654;23.376;2023-05-09T05:41:48;15.70;39.60
1103;DHT22;538;42.654;23.376;2023-05-09T05:44:16;15.80;39.20
1103;DHT22;538;42.654;23.376;2023-05-09T05:46:45;15.80;40.30
1103;DHT22;538;42.654;23.376;2023-05-09T05:49:12;15.90;39.90
1103;DHT22;538;42.654;23.376;2023-05-09T05:51:39;16.00;39.80
1103;DHT22;538;42.654;23.376;2023-05-09T05:54:06;15.80;39.90
1103;DHT22;538;42.654;23.376;2023-05-09T05:56:33;15.90;39.80
1103;DHT22;538;42.654;23.376;2023-05-09T05:59:00;15.80;37.50
1103;DHT22;538;42.654;23.376;2023-05-09T06:03:56;15.90;37.50
1103;DHT22;538;42.654;23.376;2023-05-09T06:06:23;16.10;37.70
1103;DHT22;538;42.654;23.376;2023-05-09T06:08:50;16.10;36.50
1103;DHT22;538;42.654;23.376;2023-05-09T06:13:45;16.00;36.10
1103;DHT22;538;42.654;23.376;2023-05-09T06:16:12;16.20;36.50
1103;DHT22;538;42.654;23.376;2023-05-09T06:18:39;16.20;36.90
1103;DHT22;538;42.654;23.376;2023-05-09T06:21:08;16.30;36.00
1103;DHT22;538;42.654;23.376;2023-05-09T06:23:35;16.30;35.30
1103;DHT22;538;42.654;23.376;2023-05-09T06:26:02;16.20;34.90
1103;DHT22;538;42.654;23.376;2023-05-09T06:28:29;16.30;34.30
1103;DHT22;538;42.654;23.376;2023-05-09T06:30:56;16.30;35.20
1103;DHT22;538;42.654;23.376;2023-05-09T06:33:23;16.40;34.90
1103;DHT22;538;42.654;23.376;2023-05-09T06:38:19;16.50;34.40
1103;DHT22;538;42.654;23.376;2023-05-09T06:48:09;16.50;32.30
1103;DHT22;538;42.654;23.376;2023-05-09T06:50:37;16.60;32.00
1103;DHT22;538;42.654;23.376;2023-05-09T06:55:33;16.60;30.10
1103;DHT22;538;42.654;23.376;2023-05-09T06:58:00;16.90;30.00
1103;DHT22;538;42.654;23.376;2023-05-09T07:00:27;16.90;30.00
1103;DHT22;538;42.654;23.376;2023-05-09T07:02:54;16.80;29.60
1103;DHT22;538;42.654;23.376;2023-05-09T07:05:21;16.90;29.60
1103;DHT22;538;42.654;23.376;2023-05-09T07:07:48;16.80;29.20
1103;DHT22;538;42.654;23.376;2023-05-09T07:10:15;16.80;27.70
1103;DHT22;538;42.654;23.376;2023-05-09T07:12:44;16.70;27.60
1103;DHT22;538;42.654;23.376;2023-05-09T07:20:07;16.90;26.80
1103;DHT22;538;42.654;23.376;2023-05-09T07:25:01;16.80;26.40
1103;DHT22;538;42.654;23.376;2023-05-09T07:29:57;17.10;26.30
1103;DHT22;538;42.654;23.376;2023-05-09T07:32:24;17.00;25.60
1103;DHT22;538;42.654;23.376;2023-05-09T07:37:20;16.90;25.00
1103;DHT22;538;42.654;23.376;2023-05-09T07:39:47;17.10;25.70
1103;DHT22;538;42.654;23.376;2023-05-09T07:44:42;17.10;23.70
1103;DHT22;538;42.654;23.376;2023-05-09T07:47:10;17.20;23.90
1103;DHT22;538;42.654;23.376;2023-05-09T07:49:37;17.00;23.90
1103;DHT22;538;42.654;23.376;2023-05-09T07:52:04;17.10;24.40
1103;DHT22;538;42.654;23.376;2023-05-09T07:56:59;17.00;25.60
1103;DHT22;538;42.654;23.376;2023-05-09T07:59:26;17.10;25.70
1103;DHT22;538;42.654;23.376;2023-05-09T08:01:53;17.00;25.60
1103;DHT22;538;42.654;23.376;2023-05-09T08:04:21;17.00;25.30
1103;DHT22;538;42.654;23.376;2023-05-09T08:06:48;16.80;25.30
1103;DHT22;538;42.654;23.376;2023-05-09T08:09:15;17.20;25.20
1103;DHT22;538;42.654;23.376;2023-05-09T08:11:43;16.90;25.50
1103;DHT22;538;42.654;23.376;2023-05-09T08:14:10;17.10;25.70
1103;DHT22;538;42.654;23.376;2023-05-09T08:16:37;17.10;25.60
1103;DHT22;538;42.654;23.376;2023-05-09T08:19:04;17.30;24.80
1103;DHT22;538;42.654;23.376;2023-05-09T08:21:33;17.30;24.60
1103;DHT22;538;42.654;23.376;2023-05-09T08:24:00;17.30;24.40
1103;DHT22;538;42.654;23.376;2023-05-09T08:26:27;17.40;24.60
1103;DHT22;538;42.654;23.376;2023-05-09T08:28:54;17.50;25.40
1103;DHT22;538;42.654;23.376;2023-05-09T08:33:49;17.80;25.10
1103;DHT22;538;42.654;23.376;2023-05-09T08:36:16;17.90;24.10
1103;DHT22;538;42.654;23.376;2023-05-09T08:38:44;18.10;24.10
1103;DHT22;538;42.654;23.376;2023-05-09T08:41:11;18.40;23.70
1103;DHT22;538;42.654;23.376;2023-05-09T08:43:39;18.70;22.30
1103;DHT22;538;42.654;23.376;2023-05-09T08:46:09;18.70;21.40
1103;DHT22;538;42.654;23.376;2023-05-09T08:48:37;18.80;21.10
1103;DHT22;538;42.654;23.376;2023-05-09T08:51:05;18.80;20.20
1103;DHT22;538;42.654;23.376;2023-05-09T08:53:33;18.80;19.70
1103;DHT22;538;42.654;23.376;2023-05-09T08:56:02;18.80;18.80
1103;DHT22;538;42.654;23.376;2023-05-09T08:58:30;19.00;19.30
1103;DHT22;538;42.654;23.376;2023-05-09T09:00:58;18.80;19.70
1103;DHT22;538;42.654;23.376;2023-05-09T09:03:26;18.80;20.10
1103;DHT22;538;42.654;23.376;2023-05-09T09:05:53;19.00;20.60
1103;DHT22;538;42.654;23.376;2023-05-09T09:10:49;19.20;19.50
1103;DHT22;538;42.654;23.376;2023-05-09T09:13:17;19.30;19.10
1103;DHT22;538;42.654;23.376;2023-05-09T09:15:47;19.20;17.60
1103;DHT22;538;42.654;23.376;2023-05-09T09:18:22;19.30;18.80
1103;DHT22;538;42.654;23.376;2023-05-09T09:20:55;19.10;18.70
1103;DHT22;538;42.654;23.376;2023-05-09T09:23:24;18.80;18.40
1103;DHT22;538;42.654;23.376;2023-05-09T09:25:56;18.70;18.00
1103;DHT22;538;42.654;23.376;2023-05-09T09:28:25;18.50;19.50
1103;DHT22;538;42.654;23.376;2023-05-09T09:33:20;18.30;19.50
1103;DHT22;538;42.654;23.376;2023-05-09T09:35:48;18.00;19.90
1103;DHT22;538;42.654;23.376;2023-05-09T09:38:16;18.00;20.80
1103;DHT22;538;42.654;23.376;2023-05-09T09:40:48;17.90;20.90
1103;DHT22;538;42.654;23.376;2023-05-09T09:43:18;17.70;21.00
1103;DHT22;538;42.654;23.376;2023-05-09T09:45:49;17.60;20.90
1103;DHT22;538;42.654;23.376;2023-05-09T09:48:16;17.70;21.20
1103;DHT22;538;42.654;23.376;2023-05-09T09:50:43;17.70;21.30
1103;DHT22;538;42.654;23.376;2023-05-09T09:53:12;17.50;21.50
1103;DHT22;538;42.654;23.376;2023-05-09T09:55:48;17.60;22.60
1103;DHT22;538;42.654;23.376;2023-05-09T09:58:16;17.60;22.70
1103;DHT22;538;42.654;23.376;2023-05-09T10:00:46;17.60;23.10
1103;DHT22;538;42.654;23.376;2023-05-09T10:03:16;18.10;23.10
1103;DHT22;538;42.654;23.376;2023-05-09T10:08:11;18.00;23.50
1103;DHT22;538;42.654;23.376;2023-05-09T10:10:38;18.30;21.90
1103;DHT22;538;42.654;23.376;2023-05-09T10:13:07;18.20;21.70
1103;DHT22;538;42.654;23.376;2023-05-09T10:15:35;18.10;22.60
1103;DHT22;538;42.654;23.376;2023-05-09T10:18:03;19.10;23.80
1103;DHT22;538;42.654;23.376;2023-05-09T10:20:34;18.40;22.20
1103;DHT22;538;42.654;23.376;2023-05-09T10:23:05;19.20;21.40
1103;DHT22;538;42.654;23.376;2023-05-09T10:25:38;18.90;20.80
1103;DHT22;538;42.654;23.376;2023-05-09T10:28:10;19.00;20.70
1103;DHT22;538;42.654;23.376;2023-05-09T10:30:42;19.10;19.90
1103;DHT22;538;42.654;23.376;2023-05-09T10:33:13;19.10;19.20
1103;DHT22;538;42.654;23.376;2023-05-09T10:35:45;18.80;18.50
1103;DHT22;538;42.654;23.376;2023-05-09T10:38:13;18.50;17.10
1103;DHT22;538;42.654;23.376;2023-05-09T10:43:07;17.80;18.50
1103;DHT22;538;42.654;23.376;2023-05-09T10:48:04;17.40;22.10
1103;DHT22;538;42.654;23.376;2023-05-09T10:50:33;17.30;22.60
1103;DHT22;538;42.654;23.376;2023-05-09T10:53:06;17.10;22.30
1103;DHT22;538;42.654;23.376;2023-05-09T10:55:36;17.10;23.80
1103;DHT22;538;42.654;23.376;2023-05-09T10:58:21;17.40;24.10
1103;DHT22;538;42.654;23.376;2023-05-09T11:00:50;17.40;24.00
1103;DHT22;538;42.654;23.376;2023-05-09T11:03:17;17.00;21.90
1103;DHT22;538;42.654;23.376;2023-05-09T11:05:45;17.00;22.90
1103;DHT22;538;42.654;23.376;2023-05-09T11:08:21;16.90;25.50
1103;DHT22;538;42.654;23.376;2023-05-09T11:10:49;17.10;26.30
1103;DHT22;538;42.654;23.376;2023-05-09T11:13:20;17.20;25.70
1103;DHT22;538;42.654;23.376;2023-05-09T11:16:07;17.30;26.20
1103;DHT22;538;42.654;23.376;2023-05-09T11:18:49;17.50;24.70
1103;DHT22;538;42.654;23.376;2023-05-09T11:21:17;17.60;24.00
1103;DHT22;538;42.654;23.376;2023-05-09T11:23:47;17.60;22.80
1103;DHT22;538;42.654;23.376;2023-05-09T11:28:52;18.00;23.20
1103;DHT22;538;42.654;23.376;2023-05-09T11:33:49;18.00;21.40
1103;DHT22;538;42.654;23.376;2023-05-09T11:36:27;18.10;20.10
1103;DHT22;538;42.654;23.376;2023-05-09T11:39:03;18.00;21.10
1103;DHT22;538;42.654;23.376;2023-05-09T11:41:35;17.90;20.40
1103;DHT22;538;42.654;23.376;2023-05-09T11:44:11;18.10;22.00
1103;DHT22;538;42.654;23.376;2023-05-09T11:46:39;18.20;21.70
1103;DHT22;538;42.654;23.376;2023-05-09T11:49:06;18.10;21.60
1103;DHT22;538;42.654;23.376;2023-05-09T11:51:35;18.10;21.70
1103;DHT22;538;42.654;23.376;2023-05-09T11:54:05;18.20;20.60
1103;DHT22;538;42.654;23.376;2023-05-09T11:56:33;18.20;20.20
1103;DHT22;538;42.654;23.376;2023-05-09T11:59:00;18.30;20.40
1103;DHT22;538;42.654;23.376;2023-05-09T12:01:28;18.20;20.70
1103;DHT22;538;42.654;23.376;2023-05-09T12:03:56;18.20;20.60
1103;DHT22;538;42.654;23.376;2023-05-09T12:06:24;18.20;20.70
1103;DHT22;538;42.654;23.376;2023-05-09T12:08:54;18.30;20.80
1103;DHT22;538;42.654;23.376;2023-05-09T12:11:23;18.30;20.40
1103;DHT22;538;42.654;23.376;2023-05-09T12:13:51;18.20;20.00
1103;DHT22;538;42.654;23.376;2023-05-09T12:16:19;18.00;19.30
1103;DHT22;538;42.654;23.376;2023-05-09T12:18:48;17.90;20.10
1103;DHT22;538;42.654;23.376;2023-05-09T12:21:15;17.90;20.60
1103;DHT22;538;42.654;23.376;2023-05-09T12:26:09;17.60;19.90
1103;DHT22;538;42.654;23.376;2023-05-09T12:28:38;17.50;20.70
1103;DHT22;538;42.654;23.376;2023-05-09T12:33:35;17.10;21.90
1103;DHT22;538;42.654;23.376;2023-05-09T12:36:05;17.20;22.80
1103;DHT22;538;42.654;23.376;2023-05-09T12:38:34;16.80;22.10
1103;DHT22;538;42.654;23.376;2023-05-09T12:41:02;16.60;23.80
1103;DHT22;538;42.654;23.376;2023-05-09T12:43:30;16.60;24.20
1103;DHT22;538;42.654;23.376;2023-05-09T12:46:00;16.40;24.50
1103;DHT22;538;42.654;23.376;2023-05-09T12:48:29;16.20;25.10
1103;DHT22;538;42.654;23.376;2023-05-09T12:50:56;16.20;25.70
1103;DHT22;538;42.654;23.376;2023-05-09T12:53:28;16.00;26.10
1103;DHT22;538;42.654;23.376;2023-05-09T12:56:00;15.80;26.70
1103;DHT22;538;42.654;23.376;2023-05-09T12:58:31;15.70;26.40
1103;DHT22;538;42.654;23.376;2023-05-09T13:01:02;15.50;27.50
1103;DHT22;538;42.654;23.376;2023-05-09T13:03:30;15.50;28.30
1103;DHT22;538;42.654;23.376;2023-05-09T13:06:03;15.50;29.60
1103;DHT22;538;42.654;23.376;2023-05-09T13:10:59;15.50;31.60
1103;DHT22;538;42.654;23.376;2023-05-09T13:13:26;15.40;31.00
1103;DHT22;538;42.654;23.376;2023-05-09T13:15:54;15.70;31.70
1103;DHT22;538;42.654;23.376;2023-05-09T13:18:23;15.70;30.60
1103;DHT22;538;42.654;23.376;2023-05-09T13:30:39;15.70;31.20
1103;DHT22;538;42.654;23.376;2023-05-09T13:35:35;15.90;30.80
1103;DHT22;538;42.654;23.376;2023-05-09T13:38:02;15.90;30.50
1103;DHT22;538;42.654;23.376;2023-05-09T13:40:29;15.70;30.00
1103;DHT22;538;42.654;23.376;2023-05-09T13:42:56;15.60;29.70
1103;DHT22;538;42.654;23.376;2023-05-09T13:45:23;15.70;30.20
1103;DHT22;538;42.654;23.376;2023-05-09T13:47:50;15.60;30.60
1103;DHT22;538;42.654;23.376;2023-05-09T13:52:46;15.50;30.10
1103;DHT22;538;42.654;23.376;2023-05-09T13:57:42;15.30;32.30
1103;DHT22;538;42.654;23.376;2023-05-09T14:00:10;15.50;32.90
1103;DHT22;538;42.654;23.376;2023-05-09T14:14:58;15.30;32.30
1103;DHT22;538;42.654;23.376;2023-05-09T14:17:25;15.40;32.70
1103;DHT22;538;42.654;23.376;2023-05-09T14:19:52;15.30;32.80
1103;DHT22;538;42.654;23.376;2023-05-09T14:22:19;15.10;33.10
1103;DHT22;538;42.654;23.376;2023-05-09T14:24:46;15.20;33.40
1103;DHT22;538;42.654;23.376;2023-05-09T14:27:14;15.10;33.20
1103;DHT22;538;42.654;23.376;2023-05-09T14:29:42;15.10;33.00
1103;DHT22;538;42.654;23.376;2023-05-09T14:32:09;15.10;33.30
1103;DHT22;538;42.654;23.376;2023-05-09T14:34:37;15.00;33.70
1103;DHT22;538;42.654;23.376;2023-05-09T14:37:04;15.00;34.00
1103;DHT22;538;42.654;23.376;2023-05-09T14:39:38;15.00;33.80
1103;DHT22;538;42.654;23.376;2023-05-09T14:42:07;15.10;33.60
1103;DHT22;538;42.654;23.376;2023-05-09T14:44:37;14.90;34.70
1103;DHT22;538;42.654;23.376;2023-05-09T14:47:04;15.00;35.10
1103;DHT22;538;42.654;23.376;2023-05-09T14:49:32;15.10;35.40
1103;DHT22;538;42.654;23.376;2023-05-09T14:51:59;14.80;35.30
1103;DHT22;538;42.654;23.376;2023-05-09T14:59:21;14.80;34.40
1103;DHT22;538;42.654;23.376;2023-05-09T15:01:50;14.70;34.70
1103;DHT22;538;42.654;23.376;2023-05-09T15:06:44;14.90;35.40
1103;DHT22;538;42.654;23.376;2023-05-09T15:09:11;14.80;35.50
1103;DHT22;538;42.654;23.376;2023-05-09T15:16:35;14.70;34.80
1103;DHT22;538;42.654;23.376;2023-05-09T15:19:03;14.60;33.80
1103;DHT22;538;42.654;23.376;2023-05-09T15:21:30;14.70;32.90
1103;DHT22;538;42.654;23.376;2023-05-09T15:31:20;14.40;33.90
1103;DHT22;538;42.654;23.376;2023-05-09T15:33:48;14.60;34.90
1103;DHT22;538;42.654;23.376;2023-05-09T15:36:16;14.60;34.90
1103;DHT22;538;42.654;23.376;2023-05-09T15:41:13;14.30;34.30
1103;DHT22;538;42.654;23.376;2023-05-09T15:43:40;14.40;35.00
1103;DHT22;538;42.654;23.376;2023-05-09T15:46:07;14.30;35.00
1103;DHT22;538;42.654;23.376;2023-05-09T15:48:35;14.30;35.10
1103;DHT22;538;42.654;23.376;2023-05-09T15:51:02;14.20;34.60
1103;DHT22;538;42.654;23.376;2023-05-09T15:53:30;14.10;34.80
1103;DHT22;538;42.654;23.376;2023-05-09T15:58:25;14.20;35.50
1103;DHT22;538;42.654;23.376;2023-05-09T16:00:53;14.10;35.10
1103;DHT22;538;42.654;23.376;2023-05-09T16:03:20;14.20;36.00
1103;DHT22;538;42.654;23.376;2023-05-09T16:05:49;14.20;36.00
1103;DHT22;538;42.654;23.376;2023-05-09T16:10:45;14.20;36.00
1103;DHT22;538;42.654;23.376;2023-05-09T16:13:14;14.10;35.90
1103;DHT22;538;42.654;23.376;2023-05-09T16:15:42;14.00;35.90
1103;DHT22;538;42.654;23.376;2023-05-09T16:18:09;14.10;35.90
1103;DHT22;538;42.654;23.376;2023-05-09T16:20:37;14.10;36.00
1103;DHT22;538;42.654;23.376;2023-05-09T16:23:04;14.00;36.70
1103;DHT22;538;42.654;23.376;2023-05-09T16:28:00;13.90;36.50
1103;DHT22;538;42.654;23.376;2023-05-09T16:30:27;13.90;36.70
1103;DHT22;538;42.654;23.376;2023-05-09T16:32:54;13.80;36.80
1103;DHT22;538;42.654;23.376;2023-05-09T16:37:48;13.70;37.20
1103;DHT22;538;42.654;23.376;2023-05-09T16:40:17;13.70;37.10
1103;DHT22;538;42.654;23.376;2023-05-09T16:42:44;13.80;37.60
1103;DHT22;538;42.654;23.376;2023-05-09T16:45:12;13.70;38.20
1103;DHT22;538;42.654;23.376;2023-05-09T16:47:40;13.60;39.00
1103;DHT22;538;42.654;23.376;2023-05-09T16:50:08;13.60;38.70
1103;DHT22;538;42.654;23.376;2023-05-09T16:55:04;13.60;39.50
1103;DHT22;538;42.654;23.376;2023-05-09T16:59:59;13.50;40.10
1103;DHT22;538;42.654;23.376;2023-05-09T17:02:27;13.50;40.00
1103;DHT22;538;42.654;23.376;2023-05-09T17:04:54;13.40;40.20
1103;DHT22;538;42.654;23.376;2023-05-09T17:07:21;13.40;41.10
1103;DHT22;538;42.654;23.376;2023-05-09T17:09:48;13.40;42.10
1103;DHT22;538;42.654;23.376;2023-05-09T17:14:43;13.40;43.60
1103;DHT22;538;42.654;23.376;2023-05-09T17:17:10;13.60;44.10
1103;DHT22;538;42.654;23.376;2023-05-09T17:19:39;13.40;44.10
1103;DHT22;538;42.654;23.376;2023-05-09T17:22:08;13.40;44.50
1103;DHT22;538;42.654;23.376;2023-05-09T17:24:35;13.40;44.90
1103;DHT22;538;42.654;23.376;2023-05-09T17:27:03;13.50;45.80
1103;DHT22;538;42.654;23.376;2023-05-09T17:29:30;13.40;46.70
1103;DHT22;538;42.654;23.376;2023-05-09T17:34:26;13.20;47.70
1103;DHT22;538;42.654;23.376;2023-05-09T17:36:54;13.20;48.70
1103;DHT22;538;42.654;23.376;2023-05-09T17:39:22;13.30;49.30
1103;DHT22;538;42.654;23.376;2023-05-09T17:44:17;13.10;50.30
1103;DHT22;538;42.654;23.376;2023-05-09T17:46:44;13.10;50.80
1103;DHT22;538;42.654;23.376;2023-05-09T17:49:11;13.00;51.40
1103;DHT22;538;42.654;23.376;2023-05-09T17:51:38;13.00;52.30
1103;DHT22;538;42.654;23.376;2023-05-09T17:54:07;12.90;52.80
1103;DHT22;538;42.654;23.376;2023-05-09T17:56:35;13.00;53.60
1103;DHT22;538;42.654;23.376;2023-05-09T18:01:29;13.10;54.10
1103;DHT22;538;42.654;23.376;2023-05-09T18:03:56;13.10;54.60
1103;DHT22;538;42.654;23.376;2023-05-09T18:08:51;12.90;55.10
1103;DHT22;538;42.654;23.376;2023-05-09T18:11:20;13.10;55.40
1103;DHT22;538;42.654;23.376;2023-05-09T18:13:47;13.10;55.20
1103;DHT22;538;42.654;23.376;2023-05-09T18:21:09;13.00;55.50
1103;DHT22;538;42.654;23.376;2023-05-09T18:23:36;12.90;55.10
1103;DHT22;538;42.654;23.376;2023-05-09T18:26:03;13.00;55.90
1103;DHT22;538;42.654;23.376;2023-05-09T18:28:32;13.00;57.10
1103;DHT22;538;42.654;23.376;2023-05-09T18:31:04;13.10;57.50
1103;DHT22;538;42.654;23.376;2023-05-09T18:33:32;12.90;58.20
1103;DHT22;538;42.654;23.376;2023-05-09T18:36:03;13.00;58.30
1103;DHT22;538;42.654;23.376;2023-05-09T18:41:00;12.80;59.40
1103;DHT22;538;42.654;23.376;2023-05-09T18:45:56;12.70;59.10
1103;DHT22;538;42.654;23.376;2023-05-09T18:48:23;12.60;59.50
1103;DHT22;538;42.654;23.376;2023-05-09T18:50:50;12.70;60.60
1103;DHT22;538;42.654;23.376;2023-05-09T18:55:45;12.60;61.50
1103;DHT22;538;42.654;23.376;2023-05-09T18:58:12;12.50;62.00
1103;DHT22;538;42.654;23.376;2023-05-09T19:00:40;12.50;63.10
1103;DHT22;538;42.654;23.376;2023-05-09T19:03:08;12.50;64.20
1103;DHT22;538;42.654;23.376;2023-05-09T19:05:36;12.60;65.20
1103;DHT22;538;42.654;23.376;2023-05-09T19:08:03;12.70;65.60
1103;DHT22;538;42.654;23.376;2023-05-09T19:10:30;12.50;65.90
1103;DHT22;538;42.654;23.376;2023-05-09T19:12:58;12.50;66.00
1103;DHT22;538;42.654;23.376;2023-05-09T19:15:26;12.40;65.90
1103;DHT22;538;42.654;23.376;2023-05-09T19:17:54;12.40;65.90
1103;DHT22;538;42.654;23.376;2023-05-09T19:20:23;12.40;66.30
1103;DHT22;538;42.654;23.376;2023-05-09T19:22:50;12.30;66.60
1103;DHT22;538;42.654;23.376;2023-05-09T19:25:17;12.50;67.50
1103;DHT22;538;42.654;23.376;2023-05-09T19:27:44;12.40;68.10
1103;DHT22;538;42.654;23.376;2023-05-09T19:30:13;12.30;68.90
1103;DHT22;538;42.654;23.376;2023-05-09T19:35:08;12.30;70.30
1103;DHT22;538;42.654;23.376;2023-05-09T19:37:37;12.40;70.00
1103;DHT22;538;42.654;23.376;2023-05-09T19:40:05;12.40;70.30
1103;DHT22;538;42.654;23.376;2023-05-09T19:44:59;12.40;71.00